Time;durP1;ratioP1;P1;durP2;ratioP2;P2;SDS_P1;SDS_P2;PMS_P1;PMS_P2;Temp;Humidity;BMP_temperature;BMP_pressure;BME280_temperature;BME280_humidity;BME280_pressure;Samples;Min_cycle;Max_cycle;Signal;HPM_P1;HPM_P2
2022/04/16 00:00:07;;;;;;;26.35;17.40;;;;;;;;;;4974243;28;20472;-52
2022/04/16 00:02:33;;;;;;;23.60;17.43;;;;;;;;;;4973884;28;20190;-50
2022/04/16 00:04:59;;;;;;;32.77;18.80;;;;;;;;;;4974296;28;20418;-51
2022/04/16 00:07:25;;;;;;;31.33;21.53;;;;;;;;;;4974180;28;20401;-49
2022/04/16 00:09:51;;;;;;;30.20;19.60;;;;;;;;;;4974144;28;20825;-50
2022/04/16 00:12:17;;;;;;;29.40;18.67;;;;;;;;;;4973808;28;20433;-46
2022/04/16 00:14:43;;;;;;;25.53;18.40;;;;;;;;;;4973981;28;20524;-46
2022/04/16 00:17:09;;;;;;;28.53;20.50;;;;;;;;;;4973990;28;20409;-46
2022/04/16 00:19:36;;;;;;;28.27;19.93;;;;;;;;;;4973912;28;20511;-45
2022/04/16 00:22:07;;;;;;;28.07;19.30;;;;;;;;;;4973502;28;20912;-48
2022/04/16 00:24:33;;;;;;;32.47;20.13;;;;;;;;;;4973897;28;20397;-47
2022/04/16 00:26:59;;;;;;;29.33;17.90;;;;;;;;;;4973848;28;20208;-46
2022/04/16 00:29:26;;;;;;;28.87;20.07;;;;;;;;;;4965851;28;20226;-47
2022/04/16 00:31:52;;;;;;;27.97;19.70;;;;;;;;;;4954056;28;20457;-46
2022/04/16 00:34:19;;;;;;;28.05;19.35;;;;;;;;;;4954361;28;20412;-46
2022/04/16 00:36:46;;;;;;;32.70;20.33;;;;;;;;;;4954354;28;20694;-47
2022/04/16 00:39:12;;;;;;;37.95;21.50;;;;;;;;;;4954225;28;20471;-46
2022/04/16 00:41:39;;;;;;;34.03;21.25;;;;;;;;;;4953805;28;20171;-46
2022/04/16 00:44:06;;;;;;;29.98;20.08;;;;;;;;;;4954217;28;20159;-47
2022/04/16 00:46:33;;;;;;;34.20;21.88;;;;;;;;;;4953903;28;20178;-49
2022/04/16 00:49:00;;;;;;;32.83;21.17;;;;;;;;;;4954231;28;20194;-46
2022/04/16 00:51:27;;;;;;;32.60;21.60;;;;;;;;;;4953479;28;20407;-48
2022/04/16 00:53:52;;;;;;;30.27;20.35;;;;;;;;;;4954086;28;20405;-47
2022/04/16 00:56:18;;;;;;;41.00;21.27;;;;;;;;;;4953622;28;20269;-49
2022/04/16 00:58:44;;;;;;;33.90;23.00;;;;;;;;;;4953799;28;20458;-46
2022/04/16 01:01:10;;;;;;;35.50;20.87;;;;;;;;;;4953468;28;20406;-51
2022/04/16 01:03:36;;;;;;;39.20;24.10;;;;;;;;;;4953373;28;20520;-46
2022/04/16 01:06:03;;;;;;;35.67;23.83;;;;;;;;;;4952711;28;20403;-46
2022/04/16 01:08:29;;;;;;;37.03;23.20;;;;;;;;;;4953602;28;20175;-46
2022/04/16 01:10:55;;;;;;;31.73;22.23;;;;;;;;;;4953451;28;20170;-46
2022/04/16 01:13:21;;;;;;;38.57;23.83;;;;;;;;;;4953488;28;20689;-46
2022/04/16 01:15:47;;;;;;;35.53;22.92;;;;;;;;;;4953629;28;20786;-46
2022/04/16 01:18:13;;;;;;;40.00;24.37;;;;;;;;;;4953712;28;20186;-46
2022/04/16 01:20:41;;;;;;;34.83;21.60;;;;;;;;;;4953657;28;20394;-46
2022/04/16 01:23:07;;;;;;;47.20;24.50;;;;;;;;;;4953443;28;20429;-48
2022/04/16 01:25:36;;;;;;;38.13;23.75;;;;;;;;;;4953366;28;20189;-46
2022/04/16 01:28:02;;;;;;;38.08;25.27;;;;;;;;;;4953550;28;20170;-46
2022/04/16 01:30:28;;;;;;;40.50;24.98;;;;;;;;;;4953645;28;20201;-46
2022/04/16 01:32:54;;;;;;;39.97;23.60;;;;;;;;;;4953272;28;20197;-47
2022/04/16 01:35:20;;;;;;;35.72;24.60;;;;;;;;;;4953535;28;20186;-46
2022/04/16 01:37:46;;;;;;;35.70;24.08;;;;;;;;;;4953274;28;20212;-47
2022/04/16 01:40:14;;;;;;;36.90;23.23;;;;;;;;;;4953655;28;20171;-47
2022/04/16 01:42:41;;;;;;;52.63;26.65;;;;;;;;;;4953152;28;20725;-49
2022/04/16 01:45:10;;;;;;;40.92;23.30;;;;;;;;;;4953571;28;20183;-46
2022/04/16 01:47:38;;;;;;;38.72;24.63;;;;;;;;;;4953267;28;20177;-50
2022/04/16 01:50:05;;;;;;;34.78;24.00;;;;;;;;;;4952427;28;20166;-46
2022/04/16 01:52:32;;;;;;;46.03;24.70;;;;;;;;;;4953034;28;20206;-47
2022/04/16 01:54:58;;;;;;;43.22;24.45;;;;;;;;;;4952562;28;20208;-46
2022/04/16 01:57:24;;;;;;;39.03;24.20;;;;;;;;;;4953519;28;20174;-46
2022/04/16 01:59:50;;;;;;;36.40;22.67;;;;;;;;;;4953747;28;20421;-46
2022/04/16 02:02:17;;;;;;;34.33;23.58;;;;;;;;;;4953088;28;20929;-46
2022/04/16 02:04:44;;;;;;;32.60;23.10;;;;;;;;;;4953478;28;20285;-47
2022/04/16 02:07:10;;;;;;;42.38;23.00;;;;;;;;;;4953412;28;20642;-46
2022/04/16 02:09:36;;;;;;;38.57;22.53;;;;;;;;;;4953323;28;20185;-47
2022/04/16 02:12:02;;;;;;;35.40;23.48;;;;;;;;;;4953079;28;20516;-48
2022/04/16 02:14:28;;;;;;;39.13;23.58;;;;;;;;;;4953226;28;20273;-49
2022/04/16 02:16:54;;;;;;;34.95;22.88;;;;;;;;;;4955169;28;20549;-49
2022/04/16 02:19:20;;;;;;;42.23;25.00;;;;;;;;;;4956740;28;20198;-47
2022/04/16 02:21:47;;;;;;;38.95;23.52;;;;;;;;;;4956520;28;20414;-46
2022/04/16 02:24:13;;;;;;;36.58;23.30;;;;;;;;;;4956876;28;20642;-46
2022/04/16 02:26:40;;;;;;;36.70;23.60;;;;;;;;;;4956633;28;20262;-47
2022/04/16 02:29:08;;;;;;;40.78;24.35;;;;;;;;;;4956730;28;20410;-46
2022/04/16 02:31:34;;;;;;;40.85;24.98;;;;;;;;;;4956330;28;20167;-47
2022/04/16 02:34:00;;;;;;;39.15;23.33;;;;;;;;;;4956486;28;20189;-47
2022/04/16 02:36:26;;;;;;;38.65;24.40;;;;;;;;;;4956591;28;20177;-48
2022/04/16 02:38:56;;;;;;;37.85;24.83;;;;;;;;;;4956465;28;20677;-49
2022/04/16 02:41:22;;;;;;;44.85;24.45;;;;;;;;;;4956282;28;20249;-48
2022/04/16 02:43:48;;;;;;;34.45;22.65;;;;;;;;;;4956324;28;20272;-49
2022/04/16 02:49:00;;;;;;;40.58;22.75;;;;;;;;;;4956598;29;20472;-48
2022/04/16 02:51:26;;;;;;;41.50;25.20;;;;;;;;;;4956115;28;20170;-46
2022/04/16 02:53:52;;;;;;;45.70;25.27;;;;;;;;;;4956294;28;20178;-46
2022/04/16 02:56:18;;;;;;;36.30;24.10;;;;;;;;;;4956289;28;20413;-46
2022/04/16 02:58:44;;;;;;;41.20;25.63;;;;;;;;;;4956029;28;20477;-46
2022/04/16 03:01:10;;;;;;;40.15;24.38;;;;;;;;;;4956083;28;20492;-48
2022/04/16 03:03:36;;;;;;;39.70;23.87;;;;;;;;;;4956009;28;20694;-52
2022/04/16 03:06:02;;;;;;;41.85;26.92;;;;;;;;;;4956045;28;20406;-50
2022/04/16 03:08:28;;;;;;;37.60;27.20;;;;;;;;;;4956147;28;20569;-46
2022/04/16 03:10:55;;;;;;;43.27;26.17;;;;;;;;;;4955931;28;20468;-46
2022/04/16 03:13:22;;;;;;;48.60;27.20;;;;;;;;;;4955471;28;20990;-47
2022/04/16 03:18:32;;;;;;;45.40;25.40;;;;;;;;;;4955944;29;20212;-46
2022/04/16 03:20:59;;;;;;;40.58;26.35;;;;;;;;;;4955746;28;20634;-46
2022/04/16 03:23:25;;;;;;;35.50;25.03;;;;;;;;;;4955416;28;20210;-45
2022/04/16 03:25:53;;;;;;;41.97;24.90;;;;;;;;;;4955656;28;20406;-45
2022/04/16 03:28:19;;;;;;;42.92;27.33;;;;;;;;;;4954856;28;20423;-46
2022/04/16 03:30:45;;;;;;;42.00;27.10;;;;;;;;;;4955596;28;20180;-46
2022/04/16 03:33:11;;;;;;;45.83;27.30;;;;;;;;;;4955289;28;20244;-46
2022/04/16 03:35:37;;;;;;;46.87;29.60;;;;;;;;;;4955510;28;20418;-46
2022/04/16 03:38:03;;;;;;;42.75;27.45;;;;;;;;;;4955459;28;20457;-46
2022/04/16 03:40:30;;;;;;;46.90;28.08;;;;;;;;;;4955329;28;20262;-45
2022/04/16 03:42:58;;;;;;;47.60;28.70;;;;;;;;;;4955469;28;20205;-46
2022/04/16 03:45:27;;;;;;;43.40;27.80;;;;;;;;;;4955244;28;20253;-46
2022/04/16 03:47:53;;;;;;;40.25;25.80;;;;;;;;;;4955320;28;20170;-49
2022/04/16 03:50:20;;;;;;;42.50;25.23;;;;;;;;;;4955218;28;20170;-47
2022/04/16 03:52:47;;;;;;;40.05;25.92;;;;;;;;;;4954937;28;20190;-46
2022/04/16 04:00:43;;;;;;;44.28;26.17;;;;;;;;;;4955003;29;20181;-50
2022/04/16 04:03:10;;;;;;;40.00;24.25;;;;;;;;;;4954730;28;20197;-46
2022/04/16 04:05:37;;;;;;;41.55;24.90;;;;;;;;;;4954860;28;20673;-46
2022/04/16 04:08:04;;;;;;;39.30;25.38;;;;;;;;;;4954943;28;20174;-45
2022/04/16 04:10:30;;;;;;;40.75;26.90;;;;;;;;;;4954904;28;20174;-49
2022/04/16 04:12:56;;;;;;;41.43;26.10;;;;;;;;;;4954532;28;20622;-46
2022/04/16 04:15:23;;;;;;;46.17;26.83;;;;;;;;;;4954587;28;20434;-46
2022/04/16 04:17:49;;;;;;;40.30;25.75;;;;;;;;;;4954744;28;20537;-46
2022/04/16 04:20:15;;;;;;;40.80;24.77;;;;;;;;;;4954665;28;20197;-46
2022/04/16 04:22:41;;;;;;;44.35;27.02;;;;;;;;;;4954219;28;20422;-47
2022/04/16 04:25:07;;;;;;;45.37;26.53;;;;;;;;;;4954668;28;20709;-49
2022/04/16 04:27:33;;;;;;;41.47;27.13;;;;;;;;;;4954443;28;20890;-49
2022/04/16 04:30:01;;;;;;;40.77;26.10;;;;;;;;;;4954593;28;20162;-46
2022/04/16 04:32:28;;;;;;;42.10;25.83;;;;;;;;;;4952760;28;20442;-46
2022/04/16 04:34:53;;;;;;;39.43;26.07;;;;;;;;;;4954432;28;20398;-45
2022/04/16 04:37:20;;;;;;;53.07;32.43;;;;;;;;;;4954368;28;20398;-46
2022/04/16 04:39:45;;;;;;;56.00;35.38;;;;;;;;;;4954237;28;20461;-46
2022/04/16 04:42:11;;;;;;;71.13;39.20;;;;;;;;;;4953920;28;20205;-46
2022/04/16 04:44:37;;;;;;;64.57;41.53;;;;;;;;;;4954377;28;20402;-46
2022/04/16 04:47:03;;;;;;;57.70;35.33;;;;;;;;;;4954235;28;20898;-46
2022/04/16 04:49:29;;;;;;;50.47;32.97;;;;;;;;;;4954110;28;20406;-47
2022/04/16 04:51:55;;;;;;;47.00;31.60;;;;;;;;;;4953958;28;20293;-49
2022/04/16 04:54:21;;;;;;;53.50;31.80;;;;;;;;;;4954361;28;20402;-46
2022/04/16 04:56:47;;;;;;;50.03;30.50;;;;;;;;;;4954035;28;20398;-46
2022/04/16 04:59:13;;;;;;;44.13;28.27;;;;;;;;;;4953996;28;20460;-47
2022/04/16 05:01:39;;;;;;;44.92;28.63;;;;;;;;;;4953645;28;20237;-46
2022/04/16 05:04:05;;;;;;;41.13;26.87;;;;;;;;;;4953947;28;20170;-46
2022/04/16 05:06:31;;;;;;;45.83;28.27;;;;;;;;;;4954019;28;20898;-46
2022/04/16 05:08:57;;;;;;;41.67;26.40;;;;;;;;;;4953903;28;20898;-47
2022/04/16 05:11:23;;;;;;;40.90;24.67;;;;;;;;;;4953856;28;20473;-46
2022/04/16 05:13:49;;;;;;;38.15;23.52;;;;;;;;;;4953729;28;20426;-47
2022/04/16 05:16:15;;;;;;;41.83;27.00;;;;;;;;;;4953795;28;20186;-48
2022/04/16 05:18:42;;;;;;;40.13;25.20;;;;;;;;;;4953557;28;20450;-47
2022/04/16 05:21:08;;;;;;;42.50;26.88;;;;;;;;;;4953867;28;20174;-46
2022/04/16 05:23:35;;;;;;;40.30;26.80;;;;;;;;;;4953498;28;20228;-49
2022/04/16 05:26:01;;;;;;;45.53;27.50;;;;;;;;;;4953789;28;20456;-46
2022/04/16 05:28:27;;;;;;;48.35;26.55;;;;;;;;;;4953671;28;20551;-47
2022/04/16 05:30:58;;;;;;;48.57;28.07;;;;;;;;;;4953334;28;20174;-47
2022/04/16 05:36:09;;;;;;;39.88;27.48;;;;;;;;;;4953083;29;20201;-47
2022/04/16 05:38:35;;;;;;;45.90;27.47;;;;;;;;;;4953269;28;20198;-46
2022/04/16 05:41:01;;;;;;;43.57;27.73;;;;;;;;;;4953412;28;20413;-46
2022/04/16 05:43:27;;;;;;;89.07;49.20;;;;;;;;;;4953287;28;20433;-46
2022/04/16 05:45:54;;;;;;;53.23;32.00;;;;;;;;;;4953535;28;20486;-48
2022/04/16 05:48:20;;;;;;;50.37;30.83;;;;;;;;;;4953502;28;20461;-47
2022/04/16 05:50:46;;;;;;;47.10;27.97;;;;;;;;;;4953667;28;20453;-46
2022/04/16 05:53:13;;;;;;;49.80;29.77;;;;;;;;;;4957073;28;20782;-46
2022/04/16 05:55:40;;;;;;;50.27;28.63;;;;;;;;;;4957331;28;20174;-46
2022/04/16 05:58:06;;;;;;;50.03;29.10;;;;;;;;;;4957201;28;20457;-49
2022/04/16 06:00:33;;;;;;;46.73;27.87;;;;;;;;;;4957134;28;20461;-50
2022/04/16 06:02:59;;;;;;;46.75;30.10;;;;;;;;;;4957197;28;20428;-46
2022/04/16 06:05:27;;;;;;;44.40;29.60;;;;;;;;;;4957103;28;20168;-46
2022/04/16 06:07:53;;;;;;;47.00;29.63;;;;;;;;;;4957093;28;20415;-47
2022/04/16 06:10:19;;;;;;;46.33;29.17;;;;;;;;;;4957006;28;20404;-47
2022/04/16 06:12:45;;;;;;;42.73;29.13;;;;;;;;;;4957389;28;20519;-49
2022/04/16 06:15:11;;;;;;;44.00;28.20;;;;;;;;;;4956805;28;20434;-45
2022/04/16 06:17:37;;;;;;;43.97;28.60;;;;;;;;;;4956879;28;20415;-46
2022/04/16 06:20:04;;;;;;;49.30;28.73;;;;;;;;;;4956934;28;20752;-46
2022/04/16 06:22:30;;;;;;;40.53;26.63;;;;;;;;;;4956535;28;20423;-49
2022/04/16 06:24:56;;;;;;;43.07;27.90;;;;;;;;;;4956762;28;20454;-50
2022/04/16 06:27:22;;;;;;;34.80;22.07;;;;;;;;;;4956717;28;20904;-46
2022/04/16 06:29:48;;;;;;;38.30;25.73;;;;;;;;;;4977192;28;20427;-50
2022/04/16 06:32:14;;;;;;;38.90;24.87;;;;;;;;;;4988674;28;20438;-50
2022/04/16 06:34:40;;;;;;;34.53;23.47;;;;;;;;;;4975579;28;20402;-49
2022/04/16 06:37:06;;;;;;;35.27;22.93;;;;;;;;;;4975872;28;21061;-46
2022/04/16 06:39:32;;;;;;;33.77;23.20;;;;;;;;;;4976004;28;20462;-46
2022/04/16 06:41:58;;;;;;;30.97;20.13;;;;;;;;;;4975194;28;20512;-46
2022/04/16 06:44:24;;;;;;;31.63;19.77;;;;;;;;;;4975741;28;20426;-46
2022/04/16 06:46:51;;;;;;;31.17;19.90;;;;;;;;;;4975537;28;20404;-46
2022/04/16 06:49:18;;;;;;;32.80;21.73;;;;;;;;;;4975491;28;20519;-49
2022/04/16 06:51:44;;;;;;;26.53;17.90;;;;;;;;;;4975270;28;20487;-49
2022/04/16 06:54:10;;;;;;;24.67;17.33;;;;;;;;;;4976852;28;20416;-49
2022/04/16 06:56:36;;;;;;;27.03;19.10;;;;;;;;;;4975301;28;20413;-51
2022/04/16 06:59:02;;;;;;;25.80;18.40;;;;;;;;;;4975396;28;20458;-51
2022/04/16 07:01:28;;;;;;;26.33;18.23;;;;;;;;;;4974527;28;20420;-51
2022/04/16 07:03:54;;;;;;;24.47;17.10;;;;;;;;;;4970947;28;20442;-51
2022/04/16 07:06:20;;;;;;;26.80;17.73;;;;;;;;;;4976120;28;20413;-51
2022/04/16 07:08:46;;;;;;;26.40;17.00;;;;;;;;;;4973517;28;20443;-50
2022/04/16 07:11:12;;;;;;;25.00;16.23;;;;;;;;;;4975133;28;20425;-49
2022/04/16 07:13:38;;;;;;;23.13;15.63;;;;;;;;;;4974662;28;20437;-50
2022/04/16 07:16:04;;;;;;;23.00;17.07;;;;;;;;;;4973861;28;20944;-50
2022/04/16 07:18:30;;;;;;;26.00;17.40;;;;;;;;;;4974580;28;20473;-49
2022/04/16 07:20:56;;;;;;;25.00;16.93;;;;;;;;;;4974543;28;20425;-52
2022/04/16 07:23:21;;;;;;;21.70;15.40;;;;;;;;;;4974303;28;20552;-52
2022/04/16 07:25:47;;;;;;;19.47;14.40;;;;;;;;;;4975007;28;20476;-52
2022/04/16 07:28:21;;;;;;;20.43;14.77;;;;;;;;;;4974968;28;20425;-52
2022/04/16 07:30:47;;;;;;;17.57;13.17;;;;;;;;;;4974406;28;20428;-51
2022/04/16 07:33:13;;;;;;;15.27;13.47;;;;;;;;;;4963798;28;20450;-51
2022/04/16 07:35:39;;;;;;;16.97;12.93;;;;;;;;;;4969197;28;20407;-50
2022/04/16 07:38:06;;;;;;;15.20;11.87;;;;;;;;;;4981581;28;20491;-51
2022/04/16 07:40:33;;;;;;;15.47;13.20;;;;;;;;;;4974674;28;20449;-49
2022/04/16 07:43:00;;;;;;;18.07;13.20;;;;;;;;;;4974132;28;20457;-50
2022/04/16 07:45:26;;;;;;;17.60;13.77;;;;;;;;;;4974700;28;20407;-50
2022/04/16 07:47:52;;;;;;;16.30;13.20;;;;;;;;;;4974335;28;20426;-47
2022/04/16 07:50:18;;;;;;;17.00;13.77;;;;;;;;;;4974781;28;20408;-47
2022/04/16 07:52:44;;;;;;;18.30;13.40;;;;;;;;;;4975425;28;20443;-51
2022/04/16 07:55:10;;;;;;;15.70;13.20;;;;;;;;;;4980942;28;20419;-50
2022/04/16 07:57:36;;;;;;;16.63;12.83;;;;;;;;;;4987625;28;20403;-51
2022/04/16 08:00:03;;;;;;;15.00;11.97;;;;;;;;;;4977261;28;20434;-51
2022/04/16 08:02:29;;;;;;;15.33;13.50;;;;;;;;;;4982931;28;20486;-50
2022/04/16 08:04:55;;;;;;;17.10;12.40;;;;;;;;;;4974274;28;20405;-51
2022/04/16 08:07:21;;;;;;;15.60;11.73;;;;;;;;;;4991209;28;20414;-52
2022/04/16 08:09:47;;;;;;;13.13;11.50;;;;;;;;;;4988145;28;21215;-51
2022/04/16 08:12:13;;;;;;;15.63;11.87;;;;;;;;;;4983135;28;20444;-53
2022/04/16 08:14:39;;;;;;;11.93;10.70;;;;;;;;;;4973646;28;20499;-53
2022/04/16 08:17:05;;;;;;;18.17;15.17;;;;;;;;;;4962458;28;20500;-53
2022/04/16 08:19:31;;;;;;;13.53;11.63;;;;;;;;;;4954629;28;20453;-53
2022/04/16 08:21:57;;;;;;;13.80;11.77;;;;;;;;;;4958782;28;20439;-53
2022/04/16 08:26:52;;;;;;;15.77;12.80;;;;;;;;;;4953744;28;20464;-53
2022/04/16 08:29:19;;;;;;;20.40;12.37;;;;;;;;;;4969297;28;20406;-53
2022/04/16 08:31:45;;;;;;;14.00;11.93;;;;;;;;;;4973350;28;20417;-50
2022/04/16 08:34:11;;;;;;;13.50;10.57;;;;;;;;;;4973767;28;20411;-53
2022/04/16 08:36:37;;;;;;;13.37;11.67;;;;;;;;;;4973673;28;20430;-53
2022/04/16 08:39:03;;;;;;;13.00;11.63;;;;;;;;;;4973363;28;20561;-51
2022/04/16 08:41:31;;;;;;;13.80;10.77;;;;;;;;;;4972161;28;20425;-52
2022/04/16 08:43:57;;;;;;;12.07;10.80;;;;;;;;;;4973105;28;20435;-52
2022/04/16 08:46:24;;;;;;;11.53;10.33;;;;;;;;;;4971938;28;20428;-52
2022/04/16 08:48:50;;;;;;;13.30;10.47;;;;;;;;;;4972022;28;20427;-52
2022/04/16 08:51:16;;;;;;;15.57;11.63;;;;;;;;;;4972795;28;20510;-53
2022/04/16 08:53:42;;;;;;;12.07;9.87;;;;;;;;;;4972821;28;20495;-52
2022/04/16 08:56:08;;;;;;;13.80;10.37;;;;;;;;;;4973150;28;20460;-53
2022/04/16 08:58:34;;;;;;;12.63;9.87;;;;;;;;;;4973396;28;21033;-53
2022/04/16 09:01:00;;;;;;;12.80;10.27;;;;;;;;;;4972947;28;20417;-52
2022/04/16 09:03:32;;;;;;;12.73;10.57;;;;;;;;;;4973039;28;20932;-48
2022/04/16 09:05:58;;;;;;;12.23;10.43;;;;;;;;;;4971402;28;20420;-47
2022/04/16 09:08:32;;;;;;;11.13;9.87;;;;;;;;;;4968549;28;20867;-48
2022/04/16 09:11:05;;;;;;;11.90;10.17;;;;;;;;;;4975985;28;20413;-51
2022/04/16 09:13:31;;;;;;;11.00;8.80;;;;;;;;;;4972813;28;20954;-49
2022/04/16 09:16:04;;;;;;;10.77;9.50;;;;;;;;;;4973123;28;20497;-49
2022/04/16 09:18:30;;;;;;;9.90;8.90;;;;;;;;;;4973139;28;20460;-51
2022/04/16 09:20:56;;;;;;;10.67;9.00;;;;;;;;;;4973354;28;20413;-49
2022/04/16 09:23:22;;;;;;;9.60;8.27;;;;;;;;;;4972804;28;20491;-48
2022/04/16 09:25:49;;;;;;;9.03;8.17;;;;;;;;;;4972413;28;20490;-50
2022/04/16 09:28:16;;;;;;;8.77;7.87;;;;;;;;;;4973211;28;20416;-51
2022/04/16 09:30:48;;;;;;;10.80;8.50;;;;;;;;;;4973126;28;20417;-50
2022/04/16 09:33:14;;;;;;;13.87;9.47;;;;;;;;;;4972795;28;20479;-49
2022/04/16 09:35:40;;;;;;;9.10;8.20;;;;;;;;;;4972017;28;20463;-50
2022/04/16 09:38:07;;;;;;;9.30;8.40;;;;;;;;;;4973135;28;20461;-49
2022/04/16 09:40:33;;;;;;;10.40;7.83;;;;;;;;;;4973024;28;20411;-50
2022/04/16 09:43:01;;;;;;;8.40;7.63;;;;;;;;;;4972682;28;20423;-49
2022/04/16 09:45:27;;;;;;;7.47;6.70;;;;;;;;;;4972872;28;20401;-49
2022/04/16 09:47:53;;;;;;;7.53;6.20;;;;;;;;;;4972966;28;20439;-49
2022/04/16 09:50:29;;;;;;;8.87;7.93;;;;;;;;;;4973006;28;20409;-49
2022/04/16 09:53:00;;;;;;;9.37;7.60;;;;;;;;;;4972650;28;20932;-51
2022/04/16 09:55:26;;;;;;;8.40;7.60;;;;;;;;;;4972978;28;20909;-51
2022/04/16 09:57:55;;;;;;;8.13;6.93;;;;;;;;;;4972618;28;20412;-49
2022/04/16 10:00:21;;;;;;;6.40;5.80;;;;;;;;;;4973023;28;20466;-51
2022/04/16 10:02:47;;;;;;;6.93;6.10;;;;;;;;;;4972487;28;20425;-50
2022/04/16 10:05:14;;;;;;;8.20;7.43;;;;;;;;;;4972744;28;20816;-50
2022/04/16 10:07:42;;;;;;;6.80;6.10;;;;;;;;;;4972785;28;20430;-49
2022/04/16 10:10:17;;;;;;;7.43;6.60;;;;;;;;;;4972695;28;20397;-50
2022/04/16 10:13:01;;;;;;;7.40;6.60;;;;;;;;;;4972490;28;20439;-50
2022/04/16 10:15:42;;;;;;;8.83;6.27;;;;;;;;;;4972677;28;20438;-49
2022/04/16 10:18:10;;;;;;;6.50;5.90;;;;;;;;;;4972543;28;20838;-49
2022/04/16 10:20:35;;;;;;;7.77;6.37;;;;;;;;;;4972755;28;20479;-50
2022/04/16 10:23:03;;;;;;;7.17;6.50;;;;;;;;;;4972188;28;20940;-51
2022/04/16 10:25:34;;;;;;;7.50;6.63;;;;;;;;;;4972610;28;20802;-49
2022/04/16 10:28:04;;;;;;;7.23;6.53;;;;;;;;;;4972497;28;20416;-52
2022/04/16 10:31:05;;;;;;;6.93;6.33;;;;;;;;;;4972639;28;20919;-52
2022/04/16 10:33:32;;;;;;;10.37;6.20;;;;;;;;;;4950642;29;20448;-51
2022/04/16 10:36:10;;;;;;;5.90;5.27;;;;;;;;;;4968187;28;20431;-49
2022/04/16 10:38:37;;;;;;;7.20;5.43;;;;;;;;;;4974998;28;20458;-49
2022/04/16 10:41:10;;;;;;;6.40;5.80;;;;;;;;;;4975847;28;20490;-50
2022/04/16 10:43:36;;;;;;;7.00;6.30;;;;;;;;;;4975737;28;20422;-51
2022/04/16 10:46:06;;;;;;;6.50;5.90;;;;;;;;;;4975841;28;20399;-50
2022/04/16 10:48:32;;;;;;;5.37;4.87;;;;;;;;;;4975871;28;20415;-52
2022/04/16 10:50:59;;;;;;;6.90;6.00;;;;;;;;;;4975735;28;20911;-50
2022/04/16 10:53:28;;;;;;;7.63;6.83;;;;;;;;;;4975522;28;20521;-51
2022/04/16 10:55:54;;;;;;;5.90;5.40;;;;;;;;;;4974525;28;20417;-50
2022/04/16 10:58:27;;;;;;;9.57;7.23;;;;;;;;;;4975489;28;20459;-50
2022/04/16 11:01:04;;;;;;;5.20;4.80;;;;;;;;;;4975086;28;20484;-51
2022/04/16 11:03:36;;;;;;;6.07;5.30;;;;;;;;;;4975363;28;20433;-50
2022/04/16 11:06:05;;;;;;;7.10;5.73;;;;;;;;;;4975626;28;20757;-50
2022/04/16 11:08:35;;;;;;;5.70;4.97;;;;;;;;;;4975420;28;20441;-52
2022/04/16 11:11:02;;;;;;;5.43;4.93;;;;;;;;;;4975394;28;20405;-49
2022/04/16 11:13:48;;;;;;;5.90;5.30;;;;;;;;;;4975046;28;20928;-49
2022/04/16 11:16:21;;;;;;;7.10;6.07;;;;;;;;;;4975138;28;20474;-51
2022/04/16 11:18:50;;;;;;;4.87;4.47;;;;;;;;;;4975262;28;20822;-49
2022/04/16 11:21:18;;;;;;;5.90;5.30;;;;;;;;;;4975071;28;20559;-51
2022/04/16 11:23:44;;;;;;;5.97;5.37;;;;;;;;;;4975222;28;20799;-49
2022/04/16 11:34:54;;;;;;;6.50;5.23;;;;;;;;;;4974962;28;20423;-49
2022/04/16 11:37:20;;;;;;;5.63;5.13;;;;;;;;;;4974934;28;20449;-50
2022/04/16 11:39:48;;;;;;;5.00;4.20;;;;;;;;;;4974845;28;20467;-49
2022/04/16 11:42:14;;;;;;;4.63;4.17;;;;;;;;;;4974530;28;20924;-50
2022/04/16 11:44:41;;;;;;;6.10;5.00;;;;;;;;;;4974832;28;20420;-49
2022/04/16 11:47:13;;;;;;;5.57;5.17;;;;;;;;;;4974699;28;20500;-49
2022/04/16 11:49:44;;;;;;;4.87;4.00;;;;;;;;;;4974094;28;20472;-50
2022/04/16 11:52:11;;;;;;;4.50;4.10;;;;;;;;;;4974225;28;20457;-51
2022/04/16 11:54:37;;;;;;;5.10;3.80;;;;;;;;;;4974632;28;20901;-50
2022/04/16 11:57:03;;;;;;;4.27;3.90;;;;;;;;;;4974471;28;20768;-50
2022/04/16 11:59:29;;;;;;;4.50;3.83;;;;;;;;;;4976436;28;20465;-50
2022/04/16 12:02:06;;;;;;;3.80;3.33;;;;;;;;;;4974296;28;20437;-51
2022/04/16 12:04:36;;;;;;;3.90;3.60;;;;;;;;;;4973524;28;20984;-50
2022/04/16 12:07:02;;;;;;;4.40;3.60;;;;;;;;;;4974257;28;20497;-52
2022/04/16 12:09:32;;;;;;;3.70;3.23;;;;;;;;;;4974229;28;20436;-50
2022/04/16 12:12:00;;;;;;;11.80;3.90;;;;;;;;;;4972766;28;20810;-52
2022/04/16 12:14:26;;;;;;;3.40;3.10;;;;;;;;;;4973485;28;20850;-54
2022/04/16 12:16:59;;;;;;;3.50;3.20;;;;;;;;;;4973392;28;20409;-54
2022/04/16 12:19:28;;;;;;;3.53;3.23;;;;;;;;;;4973756;28;20469;-53
2022/04/16 12:21:54;;;;;;;5.40;3.03;;;;;;;;;;4973460;28;20456;-54
2022/04/16 12:24:29;;;;;;;3.90;3.30;;;;;;;;;;4973732;28;20447;-54
2022/04/16 12:26:58;;;;;;;3.57;3.00;;;;;;;;;;4974000;28;20400;-53
2022/04/16 12:29:28;;;;;;;4.80;3.10;;;;;;;;;;4973955;28;20409;-53
2022/04/16 12:31:58;;;;;;;6.23;3.13;;;;;;;;;;4973475;28;20425;-53
2022/04/16 12:34:24;;;;;;;2.80;2.57;;;;;;;;;;4973717;28;20784;-52
2022/04/16 12:36:50;;;;;;;3.10;2.83;;;;;;;;;;4973709;28;20409;-53
2022/04/16 12:39:16;;;;;;;3.00;2.80;;;;;;;;;;4973616;28;21110;-54
2022/04/16 12:41:42;;;;;;;2.20;2.10;;;;;;;;;;4973441;28;20393;-54
2022/04/16 12:44:08;;;;;;;2.57;2.37;;;;;;;;;;4973617;28;20761;-54
2022/04/16 12:46:34;;;;;;;2.47;2.27;;;;;;;;;;4973458;28;20405;-54
2022/04/16 12:48:59;;;;;;;2.17;2.07;;;;;;;;;;4973482;28;20416;-53
2022/04/16 12:51:26;;;;;;;2.30;2.10;;;;;;;;;;4973093;28;20409;-52
2022/04/16 12:53:53;;;;;;;2.33;2.13;;;;;;;;;;4973386;28;20428;-54
2022/04/16 12:56:19;;;;;;;2.20;2.00;;;;;;;;;;4973358;28;20400;-53
2022/04/16 12:58:45;;;;;;;2.83;2.20;;;;;;;;;;4973347;28;20459;-53
2022/04/16 13:01:11;;;;;;;2.10;1.90;;;;;;;;;;4971816;28;20451;-52
2022/04/16 13:03:36;;;;;;;2.23;2.03;;;;;;;;;;4981136;28;20461;-54
2022/04/16 13:06:03;;;;;;;2.13;1.90;;;;;;;;;;4972976;28;20467;-52
2022/04/16 13:08:32;;;;;;;2.00;1.80;;;;;;;;;;4971884;28;20441;-52
2022/04/16 13:10:58;;;;;;;2.47;1.87;;;;;;;;;;4972664;28;20420;-54
2022/04/16 13:13:24;;;;;;;1.93;1.70;;;;;;;;;;4972670;28;20425;-54
2022/04/16 13:15:51;;;;;;;2.17;1.70;;;;;;;;;;4972840;28;20428;-53
2022/04/16 13:18:17;;;;;;;2.07;1.87;;;;;;;;;;4972966;28;20452;-54
2022/04/16 13:20:43;;;;;;;2.90;1.90;;;;;;;;;;4973011;28;20528;-54
2022/04/16 13:23:09;;;;;;;2.53;1.80;;;;;;;;;;4972750;28;20457;-54
2022/04/16 13:25:35;;;;;;;2.00;1.90;;;;;;;;;;4973101;28;20401;-54
2022/04/16 13:28:01;;;;;;;2.00;1.53;;;;;;;;;;4973039;28;20476;-54
2022/04/16 13:30:28;;;;;;;2.27;1.73;;;;;;;;;;4972854;28;20405;-54
2022/04/16 13:32:54;;;;;;;1.93;1.73;;;;;;;;;;4972560;28;20483;-54
2022/04/16 13:35:20;;;;;;;1.60;1.50;;;;;;;;;;4973005;28;20817;-54
2022/04/16 13:37:46;;;;;;;1.60;1.50;;;;;;;;;;4972362;28;20471;-54
2022/04/16 13:42:56;;;;;;;1.73;1.63;;;;;;;;;;4972608;28;20432;-54
2022/04/16 13:45:22;;;;;;;1.93;1.83;;;;;;;;;;4973086;28;20397;-54
2022/04/16 13:47:48;;;;;;;2.07;1.60;;;;;;;;;;4972778;28;20408;-54
2022/04/16 13:50:14;;;;;;;4.30;1.40;;;;;;;;;;4972905;28;20393;-53
2022/04/16 13:52:40;;;;;;;1.40;1.30;;;;;;;;;;4972573;28;20420;-52
2022/04/16 13:55:08;;;;;;;1.87;1.57;;;;;;;;;;4972857;28;20912;-52
2022/04/16 13:57:34;;;;;;;1.90;1.80;;;;;;;;;;4972728;28;20401;-54
2022/04/16 14:00:00;;;;;;;1.80;1.70;;;;;;;;;;4972704;28;20467;-54
2022/04/16 14:02:26;;;;;;;2.33;1.50;;;;;;;;;;4972519;28;20436;-53
2022/04/16 14:07:36;;;;;;;1.90;1.77;;;;;;;;;;4972792;28;20492;-54
2022/04/16 14:10:02;;;;;;;2.40;1.60;;;;;;;;;;4972665;28;20483;-54
2022/04/16 14:12:28;;;;;;;2.63;1.60;;;;;;;;;;4973452;28;20986;-54
2022/04/16 14:14:54;;;;;;;1.73;1.43;;;;;;;;;;4976278;28;20432;-54
2022/04/16 14:17:20;;;;;;;2.50;1.57;;;;;;;;;;4976390;28;20405;-54
2022/04/16 14:19:46;;;;;;;1.60;1.40;;;;;;;;;;4976186;28;20546;-53
2022/04/16 14:22:12;;;;;;;2.30;1.30;;;;;;;;;;4975914;28;20416;-53
2022/04/16 14:24:38;;;;;;;3.53;1.53;;;;;;;;;;4976014;28;20424;-52
2022/04/16 14:27:05;;;;;;;2.50;1.70;;;;;;;;;;4976337;28;20396;-54
2022/04/16 14:29:32;;;;;;;2.03;1.50;;;;;;;;;;4976150;28;20409;-54
2022/04/16 14:31:58;;;;;;;1.50;1.40;;;;;;;;;;4974475;28;20446;-54
2022/04/16 14:34:24;;;;;;;2.03;1.83;;;;;;;;;;4976060;28;20499;-54
2022/04/16 14:36:50;;;;;;;1.37;1.20;;;;;;;;;;4975906;28;20408;-53
2022/04/16 14:39:16;;;;;;;1.30;1.20;;;;;;;;;;4975793;28;20555;-53
2022/04/16 14:41:44;;;;;;;2.60;1.10;;;;;;;;;;4975680;28;20489;-54
2022/04/16 14:44:10;;;;;;;1.20;1.10;;;;;;;;;;4975802;28;20400;-54
2022/04/16 14:46:36;;;;;;;1.53;1.43;;;;;;;;;;4975666;28;20405;-52
2022/04/16 14:49:04;;;;;;;5.67;1.40;;;;;;;;;;4975784;28;20428;-53
2022/04/16 14:51:33;;;;;;;1.77;1.30;;;;;;;;;;4975180;28;20404;-52
2022/04/16 14:53:59;;;;;;;1.47;1.37;;;;;;;;;;4975526;28;20419;-54